Time;durP1;ratioP1;P1;durP2;ratioP2;P2;SDS_P1;SDS_P2;PMS_P1;PMS_P2;Temp;Humidity;BMP_temperature;BMP_pressure;BME280_temperature;BME280_humidity;BME280_pressure;Samples;Min_cycle;Max_cycle;Signal;HPM_P1;HPM_P2
2023/07/24 00:02:24;;;;;;;;;3.25;1.50;;;;;21.30;58.30;100088.72;5021835;28;68968;-71
2023/07/24 00:04:49;;;;;;;;;4.00;2.50;;;;;21.24;59.12;100069.63;5037132;28;61487;-72
2023/07/24 00:07:14;;;;;;;;;3.00;2.25;;;;;21.24;58.92;100068.78;5040827;28;45253;-71
2023/07/24 00:09:40;;;;;;;;;4.50;3.00;;;;;21.24;58.48;100069.63;5034746;28;69604;-71
2023/07/24 00:12:06;;;;;;;;;2.00;2.00;;;;;21.26;58.30;100063.34;5030014;28;45305;-71
2023/07/24 00:14:31;;;;;;;;;3.50;2.00;;;;;21.24;58.99;100051.00;5035783;28;45497;-72
2023/07/24 00:16:56;;;;;;;;;2.25;2.25;;;;;21.21;58.71;100037.97;5036763;28;71689;-72
2023/07/24 00:19:22;;;;;;;;;3.00;3.00;;;;;21.23;59.00;100056.47;5033034;28;73737;-72
2023/07/24 00:21:47;;;;;;;;;4.50;2.25;;;;;21.22;58.73;100049.44;5046133;28;45558;-72
2023/07/24 00:24:12;;;;;;;;;3.00;2.25;;;;;21.20;58.91;100048.72;5033102;28;68405;-70
2023/07/24 00:26:37;;;;;;;;;3.25;3.25;;;;;21.19;59.05;100053.19;5033895;28;64696;-72
2023/07/24 00:29:03;;;;;;;;;4.00;2.00;;;;;21.14;58.94;100042.09;5031360;28;62118;-71
2023/07/24 00:31:28;;;;;;;;;1.50;1.00;;;;;21.15;59.06;100041.09;5036478;28;72570;-71
2023/07/24 00:33:53;;;;;;;;;2.50;2.00;;;;;21.14;59.43;100036.78;5042675;28;61310;-72
2023/07/24 00:36:19;;;;;;;;;4.00;3.00;;;;;21.12;59.02;100025.38;5032219;28;45310;-72
2023/07/24 00:38:44;;;;;;;;;6.00;2.00;;;;;21.14;59.67;100023.47;5029559;28;68000;-72
2023/07/24 00:41:09;;;;;;;;;2.75;2.00;;;;;21.14;58.65;100020.81;5028989;28;47494;-72
2023/07/24 00:43:35;;;;;;;;;3.75;2.00;;;;;21.14;58.99;100009.31;5033069;28;61908;-71
2023/07/24 00:46:01;;;;;;;;;6.25;2.00;;;;;21.13;58.59;100004.97;5016536;28;58554;-71
2023/07/24 00:48:26;;;;;;;;;4.00;4.00;;;;;21.10;59.13;99987.44;5028373;28;69624;-71
2023/07/24 00:50:52;;;;;;;;;4.50;2.50;;;;;21.10;58.69;99983.94;5020863;28;67602;-71
2023/07/24 00:53:17;;;;;;;;;5.00;2.00;;;;;21.08;58.74;99968.09;5018818;28;45403;-72
2023/07/24 00:55:43;;;;;;;;;5.00;5.00;;;;;21.05;58.44;99947.06;5004409;28;64961;-71
2023/07/24 00:58:10;;;;;;;;;6.25;3.25;;;;;21.07;59.04;99944.28;5015469;28;48273;-72
2023/07/24 01:00:37;;;;;;;;;6.25;3.50;;;;;21.04;58.55;99962.19;5037088;28;45232;-71
2023/07/24 01:03:03;;;;;;;;;3.50;3.25;;;;;21.05;58.76;99974.53;5037463;28;45584;-72
2023/07/24 01:05:28;;;;;;;;;3.25;3.00;;;;;21.05;58.85;99979.84;5023790;28;56067;-72
2023/07/24 01:07:54;;;;;;;;;2.00;2.00;;;;;21.04;58.38;99987.94;5029772;28;69666;-72
2023/07/24 01:10:19;;;;;;;;;2.25;2.25;;;;;21.05;58.28;99993.16;5030251;28;45558;-72
2023/07/24 01:13:16;;;;;;;;;4.25;3.00;;;;;21.05;58.63;99978.97;5057661;28;51663;-72
2023/07/24 01:15:54;;;;;;;;;3.50;2.75;;;;;21.04;58.60;99979.97;5033042;28;45599;-72
2023/07/24 01:18:22;;;;;;;;;6.00;3.00;;;;;21.07;58.45;99995.69;5021826;28;48251;-72
2023/07/24 01:20:51;;;;;;;;;3.25;2.00;;;;;21.09;58.31;100007.03;5027841;28;46114;-71
2023/07/24 01:23:35;;;;;;;;;2.75;2.75;;;;;21.10;58.16;100007.88;5035024;28;45297;-72
2023/07/24 01:26:04;;;;;;;;;3.75;2.00;;;;;21.04;57.64;100007.41;5034948;28;45713;-71
2023/07/24 01:28:29;;;;;;;;;4.00;3.00;;;;;21.09;57.89;99999.06;5029960;28;46573;-72
2023/07/24 01:30:55;;;;;;;;;2.25;2.25;;;;;21.10;57.56;99994.56;5022577;28;69221;-72
2023/07/24 01:33:21;;;;;;;;;4.25;3.00;;;;;21.07;57.96;99993.03;5029586;28;45504;-71
2023/07/24 01:35:50;;;;;;;;;2.75;2.00;;;;;21.10;57.53;99998.06;5017073;28;46305;-72
2023/07/24 01:38:16;;;;;;;;;4.00;2.75;;;;;21.11;57.68;100005.09;5047824;28;46233;-71
2023/07/24 01:40:42;;;;;;;;;4.50;3.00;;;;;21.12;57.65;99998.78;5033213;28;45689;-72
2023/07/24 01:43:07;;;;;;;;;6.25;3.00;;;;;21.09;57.56;99988.41;5038430;28;45797;-71
2023/07/24 01:45:33;;;;;;;;;3.50;2.00;;;;;21.11;57.65;99985.63;5034880;28;45558;-72
2023/07/24 01:47:59;;;;;;;;;6.50;3.00;;;;;21.09;57.47;99987.56;5036280;28;72257;-72
2023/07/24 01:50:24;;;;;;;;;3.50;2.25;;;;;21.07;57.34;99977.06;5032907;28;45403;-71
2023/07/24 01:52:50;;;;;;;;;4.50;2.00;;;;;21.05;57.38;99977.19;5044760;28;45541;-71
2023/07/24 01:55:15;;;;;;;;;3.75;2.75;;;;;21.08;57.51;99967.25;5033980;28;45948;-71
2023/07/24 01:57:41;;;;;;;;;3.00;2.00;;;;;21.05;57.25;99957.69;5043517;28;47032;-71
2023/07/24 02:00:07;;;;;;;;;6.75;3.25;;;;;21.07;57.36;99960.22;5031564;28;71635;-72
2023/07/24 02:02:32;;;;;;;;;5.00;2.25;;;;;21.04;57.39;99958.69;5036061;28;45931;-72
2023/07/24 02:04:57;;;;;;;;;5.75;2.00;;;;;21.03;57.61;99962.31;5026276;28;68403;-72
2023/07/24 02:07:24;;;;;;;;;4.75;3.50;;;;;21.01;57.86;99972.25;5025659;28;46278;-72
2023/07/24 02:09:50;;;;;;;;;3.00;3.00;;;;;21.00;57.92;99975.84;5030879;28;45746;-72
2023/07/24 02:12:15;;;;;;;;;3.00;2.25;;;;;20.96;58.09;99977.94;5029359;28;45368;-72
2023/07/24 02:14:40;;;;;;;;;3.25;3.25;;;;;20.92;58.14;99971.19;5036774;28;45525;-72
2023/07/24 02:17:06;;;;;;;;;6.25;2.75;;;;;20.89;58.57;99962.63;5029166;28;60474;-72
2023/07/24 02:19:31;;;;;;;;;7.75;3.00;;;;;20.86;58.23;99959.25;5030193;28;65629;-71
2023/07/24 02:21:56;;;;;;;;;8.50;3.75;;;;;20.83;58.73;99940.88;5023751;28;45310;-72
2023/07/24 02:24:22;;;;;;;;;6.50;3.00;;;;;20.81;58.72;99963.25;5033543;28;72718;-72
2023/07/24 02:26:47;;;;;;;;;2.00;2.00;;;;;20.78;59.10;99980.28;5027043;28;53149;-72
2023/07/24 02:29:12;;;;;;;;;2.25;2.25;;;;;20.72;59.79;99975.50;5035030;28;54844;-70
2023/07/24 02:31:37;;;;;;;;;3.00;3.00;;;;;20.67;60.29;99975.84;5024226;28;65739;-70
2023/07/24 02:34:03;;;;;;;;;6.00;3.00;;;;;20.64;60.09;99976.09;5037381;28;73116;-71
2023/07/24 02:36:28;;;;;;;;;3.50;3.50;;;;;20.61;59.95;99976.38;5027120;28;71726;-71
2023/07/24 02:38:53;;;;;;;;;3.75;3.75;;;;;20.59;59.43;99978.28;5030906;28;72735;-71
2023/07/24 02:41:19;;;;;;;;;3.25;3.00;;;;;20.58;60.26;99971.25;5023940;28;54304;-71
2023/07/24 02:43:44;;;;;;;;;5.25;3.25;;;;;20.56;60.02;99959.91;5032579;28;60297;-71
2023/07/24 02:46:09;;;;;;;;;4.00;3.00;;;;;20.54;60.10;99953.00;5025423;28;72950;-71
2023/07/24 02:48:35;;;;;;;;;3.25;3.00;;;;;20.54;60.12;99951.22;5017547;28;64404;-70
2023/07/24 02:51:00;;;;;;;;;5.50;3.25;;;;;20.52;59.70;99953.13;5024595;28;53982;-71
2023/07/24 02:53:25;;;;;;;;;4.75;3.25;;;;;20.48;60.02;99957.03;5018815;28;45817;-71
2023/07/24 02:55:51;;;;;;;;;3.75;3.00;;;;;20.46;59.71;99945.69;5029366;28;54573;-71
2023/07/24 02:58:16;;;;;;;;;7.00;4.25;;;;;20.44;60.03;99951.13;5034108;28;64480;-72
2023/07/24 03:00:41;;;;;;;;;3.00;3.00;;;;;20.44;60.12;99964.41;5027952;28;56792;-72
2023/07/24 03:03:06;;;;;;;;;2.75;2.75;;;;;20.42;60.81;99970.81;5037228;28;48105;-72
2023/07/24 03:05:34;;;;;;;;;4.00;2.75;;;;;20.43;60.39;99978.69;5032657;28;54883;-72
2023/07/24 03:07:59;;;;;;;;;4.75;4.75;;;;;20.44;60.55;99979.50;5035625;28;45916;-72
2023/07/24 03:10:25;;;;;;;;;3.50;3.00;;;;;20.39;60.32;99979.88;5032922;28;45281;-71
2023/07/24 03:12:50;;;;;;;;;3.00;3.00;;;;;20.39;60.55;99992.31;5035568;28;45586;-71
2023/07/24 03:15:16;;;;;;;;;5.00;4.00;;;;;20.36;60.71;99982.78;5025380;28;66673;-71
2023/07/24 03:17:41;;;;;;;;;6.50;5.00;;;;;20.32;61.60;99976.00;5027234;28;45253;-70
2023/07/24 03:20:14;;;;;;;;;3.25;2.25;;;;;20.27;61.12;99976.41;5018785;28;69890;-73
2023/07/24 03:22:43;;;;;;;;;5.00;3.50;;;;;20.20;62.96;99969.88;5037602;28;45380;-73
2023/07/24 03:25:09;;;;;;;;;2.50;1.75;;;;;20.15;61.83;99977.38;5032549;28;47100;-71
2023/07/24 03:27:34;;;;;;;;;4.50;4.00;;;;;20.08;62.12;99976.19;5037842;28;45462;-72
2023/07/24 03:30:00;;;;;;;;;7.25;4.50;;;;;20.05;62.42;99963.13;5024333;28;45456;-71
2023/07/24 03:32:25;;;;;;;;;4.75;2.75;;;;;20.02;62.40;99956.22;5038527;28;59445;-71
2023/07/24 03:34:50;;;;;;;;;2.00;2.00;;;;;20.02;62.16;99955.41;5026228;28;60203;-71
2023/07/24 03:37:16;;;;;;;;;4.00;4.00;;;;;20.00;62.87;99968.78;5012373;28;71551;-71
2023/07/24 03:39:41;;;;;;;;;5.75;3.00;;;;;19.97;62.90;99984.13;5028010;28;45457;-71
2023/07/24 03:42:09;;;;;;;;;5.50;2.75;;;;;19.95;62.81;99964.81;5032403;28;67014;-71
2023/07/24 03:44:35;;;;;;;;;5.00;3.75;;;;;19.92;64.40;99947.31;5026116;28;46523;-72
2023/07/24 03:47:00;;;;;;;;;4.00;3.00;;;;;19.91;63.19;99953.59;5033024;28;71152;-72
2023/07/24 03:49:25;;;;;;;;;3.00;2.00;;;;;19.87;65.07;99958.28;5023490;28;61866;-72
2023/07/24 03:51:51;;;;;;;;;4.25;2.00;;;;;19.84;63.53;99929.31;5035172;28;45547;-72
2023/07/24 03:54:16;;;;;;;;;5.50;4.00;;;;;19.79;64.24;99914.72;5031389;28;71206;-72
2023/07/24 03:56:41;;;;;;;;;5.25;3.00;;;;;19.78;63.49;99928.94;5029144;28;70970;-72
2023/07/24 03:59:07;;;;;;;;;6.00;3.00;;;;;19.74;63.91;99928.34;5019804;28;45429;-71
2023/07/24 04:01:32;;;;;;;;;5.00;3.00;;;;;19.74;64.02;99944.28;5038112;28;45496;-71
2023/07/24 04:03:58;;;;;;;;;2.00;2.00;;;;;19.70;63.86;99940.97;5034739;28;73787;-68
2023/07/24 04:06:23;;;;;;;;;3.25;3.00;;;;;19.63;64.61;99930.97;5027951;28;45313;-69
2023/07/24 04:08:49;;;;;;;;;2.00;2.00;;;;;19.54;64.99;99924.56;5034800;28;60934;-68
2023/07/24 04:11:14;;;;;;;;;2.50;2.50;;;;;19.44;65.40;99927.09;5032367;28;70328;-68
2023/07/24 04:13:39;;;;;;;;;7.00;3.75;;;;;19.37;66.54;99927.69;5013297;28;47142;-68
2023/07/24 04:16:05;;;;;;;;;5.00;4.00;;;;;19.28;66.17;99943.34;5033645;28;64651;-69
2023/07/24 04:18:30;;;;;;;;;4.50;2.25;;;;;19.25;66.40;99942.75;5025180;28;45296;-69
2023/07/24 04:20:56;;;;;;;;;5.00;2.75;;;;;19.21;67.15;99931.53;5021657;28;59026;-69
2023/07/24 04:23:21;;;;;;;;;3.00;3.00;;;;;19.18;68.13;99939.69;5022063;28;47969;-67
2023/07/24 04:25:49;;;;;;;;;5.75;2.50;;;;;19.13;68.31;99944.50;5021570;28;45238;-67
2023/07/24 04:28:14;;;;;;;;;5.50;3.50;;;;;19.09;68.22;99938.59;5031807;28;45359;-68
2023/07/24 04:30:40;;;;;;;;;4.00;2.25;;;;;19.07;68.38;99931.69;5030651;28;61558;-69
2023/07/24 04:33:05;;;;;;;;;3.00;3.00;;;;;19.05;68.34;99928.31;5023827;28;71617;-69
2023/07/24 04:35:30;;;;;;;;;3.50;3.25;;;;;19.04;68.03;99926.66;5017178;28;45531;-69
2023/07/24 04:37:57;;;;;;;;;4.00;0.75;;;;;19.03;68.26;99922.28;5045078;28;45513;-69
2023/07/24 04:40:22;;;;;;;;;3.50;2.75;;;;;19.02;69.31;99917.97;5031596;28;45766;-69
2023/07/24 04:42:48;;;;;;;;;4.50;3.00;;;;;18.97;69.24;99927.09;5037534;28;47215;-69
2023/07/24 04:45:13;;;;;;;;;5.00;3.50;;;;;18.95;69.02;99926.38;5035854;28;51344;-70
2023/07/24 04:47:38;;;;;;;;;5.50;3.00;;;;;18.94;69.61;99929.13;5017886;28;45222;-70
2023/07/24 04:50:04;;;;;;;;;3.00;2.00;;;;;18.93;70.00;99933.59;5033405;28;45510;-69
2023/07/24 04:52:30;;;;;;;;;3.75;3.75;;;;;18.88;69.71;99925.13;5034419;28;45422;-69
2023/07/24 04:54:55;;;;;;;;;4.25;3.00;;;;;18.89;69.92;99924.19;5032583;28;45375;-69
2023/07/24 04:57:20;;;;;;;;;3.00;3.00;;;;;18.89;69.63;99932.16;5031896;28;67118;-68
2023/07/24 04:59:46;;;;;;;;;2.00;2.00;;;;;18.94;69.55;99935.28;5026657;28;59171;-68
2023/07/24 05:02:11;;;;;;;;;2.00;2.00;;;;;18.96;69.45;99936.03;5035104;28;45521;-68
2023/07/24 05:04:37;;;;;;;;;4.25;2.00;;;;;19.01;69.30;99938.31;5028614;28;65960;-68
2023/07/24 05:07:02;;;;;;;;;3.25;2.00;;;;;19.02;69.08;99932.06;5036592;28;60221;-68
2023/07/24 05:09:27;;;;;;;;;2.00;1.00;;;;;19.11;69.09;99938.47;5029420;28;45562;-69
2023/07/24 05:11:53;;;;;;;;;1.00;1.00;;;;;19.12;68.70;99941.03;5040452;28;70864;-69
2023/07/24 05:14:18;;;;;;;;;2.00;2.00;;;;;19.15;68.48;99934.63;5035253;28;67001;-68
2023/07/24 05:16:43;;;;;;;;;4.50;1.50;;;;;19.20;68.05;99931.63;5021785;28;45380;-67
2023/07/24 05:19:09;;;;;;;;;3.75;1.00;;;;;19.26;67.69;99936.47;5027464;28;66495;-68
2023/07/24 05:21:34;;;;;;;;;1.00;1.00;;;;;19.32;67.39;99939.50;5032449;28;45373;-68
2023/07/24 05:23:59;;;;;;;;;0.50;0.50;;;;;19.39;67.15;99944.31;5031861;28;68797;-68
2023/07/24 05:26:25;;;;;;;;;1.25;1.00;;;;;19.38;66.71;99940.00;5023800;28;62949;-78
2023/07/24 05:28:52;;;;;;;;;2.75;2.75;;;;;19.42;66.83;99933.47;5030798;28;45758;-79
2023/07/24 05:31:17;;;;;;;;;2.00;2.00;;;;;19.43;66.38;99914.78;5016310;28;46845;-76
2023/07/24 05:33:43;;;;;;;;;2.75;1.00;;;;;19.56;66.16;99924.47;5029289;28;61190;-75
2023/07/24 05:36:08;;;;;;;;;1.00;1.00;;;;;19.62;65.78;99919.53;5017223;28;67277;-74
2023/07/24 05:38:33;;;;;;;;;3.50;2.25;;;;;19.68;65.41;99915.53;5027412;28;45495;-77
2023/07/24 05:41:00;;;;;;;;;2.00;1.50;;;;;19.69;65.26;99918.06;5035639;28;73699;-75
2023/07/24 05:43:27;;;;;;;;;3.00;1.25;;;;;19.78;64.92;99921.84;5038355;28;45739;-75
2023/07/24 05:45:53;;;;;;;;;2.00;1.00;;;;;19.87;64.15;99923.78;5021035;28;45417;-78
2023/07/24 05:48:19;;;;;;;;;1.00;1.00;;;;;20.02;64.14;99942.13;5023130;28;45812;-73
2023/07/24 05:50:44;;;;;;;;;1.00;1.00;;;;;20.08;63.63;99928.38;5037391;28;46332;-76
2023/07/24 05:53:09;;;;;;;;;0.50;0.50;;;;;20.13;63.12;99933.28;5033413;28;45323;-75
2023/07/24 05:55:35;;;;;;;;;3.00;2.00;;;;;20.14;62.84;99922.53;5036772;28;45528;-77
2023/07/24 05:58:00;;;;;;;;;1.25;1.00;;;;;20.06;63.09;99919.66;5038566;28;72141;-76
2023/07/24 06:00:25;;;;;;;;;2.25;1.00;;;;;20.04;62.83;99917.13;5020332;28;72841;-76
2023/07/24 06:02:51;;;;;;;;;2.75;2.25;;;;;20.04;62.36;99919.78;5037819;28;45312;-77
2023/07/24 06:05:16;;;;;;;;;3.00;1.00;;;;;20.07;62.10;99930.16;5027509;28;65038;-75
2023/07/24 06:07:42;;;;;;;;;1.00;1.00;;;;;20.03;62.43;99926.06;5031809;28;45417;-79
2023/07/24 06:10:07;;;;;;;;;1.75;1.00;;;;;20.09;61.80;99925.56;5033200;28;45479;-75
2023/07/24 06:12:33;;;;;;;;;0.00;0.00;;;;;20.10;61.28;99939.72;5023504;28;45859;-81
2023/07/24 06:14:58;;;;;;;;;1.25;1.00;;;;;20.04;60.91;99935.72;5033639;28;46539;-80
2023/07/24 06:17:23;;;;;;;;;1.00;1.00;;;;;20.09;61.28;99949.47;5016120;28;54621;-79
2023/07/24 06:19:49;;;;;;;;;1.00;1.00;;;;;20.12;61.08;99934.28;5038414;28;72680;-79
2023/07/24 06:22:14;;;;;;;;;1.00;1.00;;;;;20.13;60.12;99935.94;5021359;28;56519;-78
2023/07/24 06:24:39;;;;;;;;;2.00;2.00;;;;;20.15;60.19;99944.63;5017112;28;60923;-78
2023/07/24 06:27:06;;;;;;;;;3.25;1.00;;;;;20.21;59.48;99954.78;5035725;28;70089;-78
2023/07/24 06:29:32;;;;;;;;;1.00;0.75;;;;;20.22;58.95;99954.66;5040923;28;45532;-77
2023/07/24 06:31:57;;;;;;;;;1.50;1.00;;;;;20.24;59.15;99950.06;5030561;28;46669;-78
2023/07/24 06:34:22;;;;;;;;;3.50;1.00;;;;;20.34;58.83;99960.78;5019355;28;49384;-77
2023/07/24 06:36:48;;;;;;;;;1.50;1.00;;;;;20.41;58.27;99953.16;5024528;28;45328;-80
2023/07/24 06:39:13;;;;;;;;;1.00;1.00;;;;;20.56;58.06;99948.44;5029628;28;71601;-78
2023/07/24 06:41:38;;;;;;;;;1.00;1.00;;;;;20.64;58.41;99930.91;5038132;28;68258;-79
2023/07/24 06:44:04;;;;;;;;;2.75;1.25;;;;;20.74;57.84;99940.81;5033229;28;55750;-78
2023/07/24 06:46:29;;;;;;;;;1.75;1.00;;;;;20.88;56.97;99939.66;5017198;28;45519;-77
2023/07/24 06:48:54;;;;;;;;;2.25;1.00;;;;;20.97;56.32;99939.72;5030608;28;46214;-78
2023/07/24 06:51:20;;;;;;;;;3.75;0.50;;;;;21.09;56.47;99944.97;5039071;28;60749;-83
2023/07/24 06:53:45;;;;;;;;;1.25;0.75;;;;;21.12;56.09;99942.06;5038954;28;45396;-80
2023/07/24 06:56:10;;;;;;;;;2.00;1.00;;;;;21.19;56.37;99940.59;5040503;28;58791;-74
2023/07/24 06:58:36;;;;;;;;;3.00;1.00;;;;;21.20;55.93;99943.13;5045984;28;56946;-76
2023/07/24 07:01:05;;;;;;;;;4.00;1.00;;;;;21.15;55.77;99950.66;5019620;28;45696;-76
2023/07/24 07:03:31;;;;;;;;;2.00;2.00;;;;;21.07;55.47;99944.28;5037041;28;45419;-75
2023/07/24 07:05:59;;;;;;;;;1.00;1.00;;;;;21.03;55.51;99935.72;5027779;28;45444;-78
2023/07/24 07:08:25;;;;;;;;;3.75;1.00;;;;;21.00;55.05;99946.59;5017576;28;47300;-78
2023/07/24 07:10:58;;;;;;;;;3.00;1.00;;;;;20.97;55.44;99941.56;5033980;28;56971;-76
2023/07/24 07:13:24;;;;;;;;;1.00;1.00;;;;;20.96;55.00;99950.50;5038449;28;45355;-78
2023/07/24 07:15:49;;;;;;;;;1.00;0.75;;;;;20.93;54.72;99951.59;5035648;28;53739;-77
2023/07/24 07:18:14;;;;;;;;;1.25;1.25;;;;;20.90;55.23;99953.69;5032841;28;69676;-77
2023/07/24 07:20:45;;;;;;;;;3.25;1.00;;;;;20.98;54.86;99949.41;5038652;28;45406;-78
2023/07/24 07:23:10;;;;;;;;;1.50;1.00;;;;;21.04;55.04;99948.88;5034070;28;45557;-75
2023/07/24 07:25:36;;;;;;;;;2.75;1.25;;;;;21.09;54.09;99942.31;5034564;28;58947;-78
2023/07/24 07:28:01;;;;;;;;;1.00;1.00;;;;;21.12;54.37;99950.06;5034349;28;65990;-77
2023/07/24 07:30:26;;;;;;;;;2.75;1.50;;;;;21.13;54.10;99949.09;5035112;28;67347;-80
2023/07/24 07:32:52;;;;;;;;;1.50;1.50;;;;;21.18;53.79;99937.09;5030483;28;50372;-78
2023/07/24 07:35:17;;;;;;;;;1.00;1.00;;;;;21.27;54.05;99931.97;5035362;28;64121;-76
2023/07/24 07:37:42;;;;;;;;;1.25;1.25;;;;;21.35;53.68;99945.44;5035695;28;73869;-75
2023/07/24 07:40:08;;;;;;;;;0.75;0.00;;;;;21.37;53.49;99943.50;5035241;28;45882;-81
2023/07/24 07:42:33;;;;;;;;;3.00;2.00;;;;;21.34;53.79;99946.44;5030186;28;45502;-80
2023/07/24 07:44:58;;;;;;;;;2.75;1.25;;;;;21.33;53.81;99948.25;5015380;28;45565;-80
2023/07/24 07:47:24;;;;;;;;;1.00;1.00;;;;;21.23;53.61;99944.69;5032737;28;46293;-81
2023/07/24 07:49:49;;;;;;;;;1.00;1.00;;;;;21.19;53.50;99960.03;5034172;28;68174;-82
2023/07/24 07:52:17;;;;;;;;;2.00;2.00;;;;;21.22;53.12;99959.78;5034802;28;45662;-82
2023/07/24 07:54:46;;;;;;;;;1.50;1.50;;;;;21.24;52.13;99959.66;5015875;28;45495;-84
2023/07/24 07:57:11;;;;;;;;;2.00;1.00;;;;;21.21;53.10;99950.16;5035665;28;45401;-79
2023/07/24 07:59:37;;;;;;;;;4.25;3.50;;;;;21.19;54.75;99959.22;5034985;28;67746;-74
2023/07/24 08:02:02;;;;;;;;;0.75;0.75;;;;;21.22;52.29;99950.97;5028808;28;45208;-82
2023/07/24 08:04:27;;;;;;;;;2.00;2.00;;;;;21.23;51.76;99948.19;5033509;28;45546;-81
2023/07/24 08:06:53;;;;;;;;;4.25;2.00;;;;;21.36;52.34;99947.16;5035763;28;59018;-71
2023/07/24 08:09:18;;;;;;;;;1.50;1.50;;;;;21.34;52.20;99949.94;5031728;28;45372;-73
2023/07/24 08:11:44;;;;;;;;;2.00;0.50;;;;;21.31;52.10;99950.19;5019006;28;45543;-73
2023/07/24 08:14:09;;;;;;;;;1.00;1.00;;;;;21.37;51.92;99970.97;5037565;28;50247;-70
2023/07/24 08:16:34;;;;;;;;;1.00;1.00;;;;;21.37;51.13;99955.00;5036562;28;73265;-76
2023/07/24 08:19:00;;;;;;;;;2.00;1.25;;;;;21.37;51.13;99968.31;5036570;28;45522;-71
2023/07/24 08:21:25;;;;;;;;;3.75;1.00;;;;;21.48;51.00;99970.09;5025255;28;45367;-72
2023/07/24 08:23:50;;;;;;;;;2.00;2.00;;;;;21.50;50.98;99967.31;5034331;28;45793;-72
2023/07/24 08:26:16;;;;;;;;;3.00;1.00;;;;;21.54;49.94;99966.91;5038327;28;50808;-77
2023/07/24 08:28:42;;;;;;;;;2.75;2.00;;;;;21.67;50.53;99979.16;5023325;28;45538;-79
2023/07/24 08:31:08;;;;;;;;;1.00;1.00;;;;;21.82;49.22;99966.38;5034614;28;45395;-79
2023/07/24 08:33:33;;;;;;;;;2.50;2.00;;;;;21.94;50.30;99967.97;5023382;28;45772;-76
2023/07/24 08:36:04;;;;;;;;;2.75;1.75;;;;;22.02;48.62;99959.28;5036180;28;63129;-78
2023/07/24 08:38:29;;;;;;;;;4.00;4.00;;;;;22.07;49.19;99960.56;5036257;28;45537;-77
2023/07/24 08:41:05;;;;;;;;;1.00;1.00;;;;;22.13;48.46;99968.03;5035658;28;45366;-80
2023/07/24 08:43:32;;;;;;;;;3.00;1.75;;;;;22.16;48.41;99965.09;5038906;28;45530;-79
2023/07/24 08:45:59;;;;;;;;;2.00;2.00;;;;;22.15;49.01;99968.75;5039717;28;45481;-79
2023/07/24 08:48:26;;;;;;;;;1.00;1.00;;;;;22.21;49.51;99971.84;5023455;28;45321;-77
2023/07/24 08:50:52;;;;;;;;;2.00;1.00;;;;;22.27;48.08;99972.16;5039094;28;45226;-78
2023/07/24 08:53:19;;;;;;;;;1.50;1.50;;;;;22.33;47.54;99971.63;5038863;28;45282;-77
2023/07/24 08:55:48;;;;;;;;;1.00;1.00;;;;;22.34;46.64;99967.97;5027596;28;46562;-77
2023/07/24 08:58:13;;;;;;;;;1.00;1.00;;;;;22.44;46.85;99967.19;5041349;28;45493;-77
2023/07/24 09:00:39;;;;;;;;;3.25;1.50;;;;;22.47;46.57;99966.88;5038713;28;45444;-77
2023/07/24 09:03:04;;;;;;;;;1.00;1.00;;;;;22.53;47.39;99977.84;5042617;28;54320;-79
2023/07/24 09:05:30;;;;;;;;;1.75;1.75;;;;;22.66;47.52;99963.41;5023552;28;47118;-76
2023/07/24 09:07:55;;;;;;;;;1.75;1.75;;;;;22.74;46.98;99974.25;5042080;28;72087;-78
2023/07/24 09:10:25;;;;;;;;;3.75;1.00;;;;;22.86;46.91;99982.94;5042242;28;45403;-77
2023/07/24 09:12:51;;;;;;;;;1.50;1.50;;;;;22.94;45.17;99975.94;5040929;28;45332;-85
2023/07/24 09:15:16;;;;;;;;;1.00;1.00;;;;;22.99;45.05;99975.50;5034549;28;45337;-77
2023/07/24 09:17:52;;;;;;;;;1.25;0.50;;;;;23.01;45.22;99978.88;5022824;28;46137;-82
2023/07/24 09:20:18;;;;;;;;;1.25;1.25;;;;;23.08;44.99;99979.19;5035781;28;45388;-78
2023/07/24 09:22:51;;;;;;;;;3.00;1.00;;;;;23.15;44.47;99988.34;5024491;28;45409;-81
2023/07/24 09:25:16;;;;;;;;;2.50;2.00;;;;;23.15;43.75;99983.00;5033086;28;45833;-76
2023/07/24 09:27:41;;;;;;;;;1.25;1.00;;;;;23.09;42.65;99983.56;5038651;28;60469;-73
2023/07/24 09:30:14;;;;;;;;;0.75;0.25;;;;;23.17;44.21;99981.03;5034396;28;54034;-76
2023/07/24 09:32:40;;;;;;;;;1.50;1.50;;;;;23.28;44.07;99978.22;5040112;28;45383;-77
2023/07/24 09:35:16;;;;;;;;;3.00;1.00;;;;;23.42;43.87;99987.59;5022275;28;47520;-75
2023/07/24 09:37:42;;;;;;;;;3.75;1.00;;;;;23.54;43.55;99995.47;5032375;28;45319;-79
2023/07/24 09:40:09;;;;;;;;;3.00;2.00;;;;;23.58;43.69;99975.47;5030294;28;45361;-80
2023/07/24 09:42:36;;;;;;;;;4.00;0.50;;;;;23.58;44.13;99980.81;5037352;28;45206;-78
2023/07/24 09:45:02;;;;;;;;;3.50;1.00;;;;;23.53;43.65;99983.09;5035735;28;47232;-77
2023/07/24 09:47:28;;;;;;;;;1.50;1.25;;;;;23.43;44.29;99986.63;5038635;28;45781;-77
2023/07/24 09:49:53;;;;;;;;;2.25;2.25;;;;;23.44;43.76;99984.78;5033181;28;45719;-80
2023/07/24 09:52:19;;;;;;;;;2.50;2.25;;;;;23.52;43.75;99984.91;5037243;28;45272;-77
2023/07/24 09:54:56;;;;;;;;;0.50;0.50;;;;;23.55;43.47;99983.78;5036211;28;45553;-77
2023/07/24 09:57:23;;;;;;;;;1.50;1.25;;;;;23.59;43.93;99985.19;5036361;28;45788;-80
2023/07/24 09:59:49;;;;;;;;;1.75;0.75;;;;;23.65;42.92;99980.09;5039796;28;45358;-78
2023/07/24 10:02:15;;;;;;;;;1.50;1.50;;;;;23.72;43.20;99990.22;5037005;28;45466;-79
2023/07/24 10:04:41;;;;;;;;;2.25;0.50;;;;;23.79;43.61;99988.66;5036617;28;45396;-82
2023/07/24 10:07:07;;;;;;;;;2.25;1.50;;;;;23.86;43.70;99997.78;5037781;28;45412;-79
2023/07/24 10:09:33;;;;;;;;;1.25;1.25;;;;;23.85;43.37;99991.63;5040159;28;45450;-82
2023/07/24 10:11:59;;;;;;;;;1.25;1.25;;;;;23.87;42.88;99992.31;5029860;28;45444;-75
2023/07/24 10:14:25;;;;;;;;;2.25;1.25;;;;;23.86;43.01;99979.94;5018780;28;75870;-74
2023/07/24 10:16:55;;;;;;;;;1.25;1.25;;;;;23.89;43.02;99978.81;5037523;28;45349;-76
2023/07/24 10:19:20;;;;;;;;;0.50;0.50;;;;;24.15;43.31;99995.03;5039678;28;45324;-79
2023/07/24 10:21:47;;;;;;;;;2.75;1.25;;;;;24.31;41.81;99986.38;5040409;28;45580;-77
2023/07/24 10:24:12;;;;;;;;;5.25;1.75;;;;;24.39;42.53;99994.47;5039286;28;45411;-69
2023/07/24 10:26:38;;;;;;;;;4.50;4.25;;;;;24.40;41.95;99987.28;5040415;28;55246;-76
2023/07/24 10:29:03;;;;;;;;;1.00;1.00;;;;;24.34;41.78;99996.75;5035381;28;57166;-74
2023/07/24 10:31:30;;;;;;;;;3.75;1.25;;;;;24.26;41.47;99981.47;5031981;28;45577;-75
2023/07/24 10:33:56;;;;;;;;;1.25;1.25;;;;;24.18;41.72;99991.22;5021760;28;46981;-79
2023/07/24 10:36:22;;;;;;;;;0.50;0.50;;;;;24.17;42.25;99989.50;5036566;28;45281;-83
2023/07/24 10:38:57;;;;;;;;;1.25;1.25;;;;;24.14;42.31;99987.97;5039066;28;45276;-74
2023/07/24 10:41:34;;;;;;;;;3.00;3.00;;;;;24.12;43.03;99992.63;5020865;28;45257;-77
2023/07/24 10:44:00;;;;;;;;;2.00;1.25;;;;;24.15;42.54;99980.78;5048567;28;48794;-80
2023/07/24 10:46:36;;;;;;;;;1.25;1.25;;;;;24.25;41.96;100006.50;5031308;28;45290;-81
2023/07/24 10:49:02;;;;;;;;;1.25;1.25;;;;;24.37;42.53;99995.63;5037288;28;45408;-75
2023/07/24 10:51:29;;;;;;;;;3.50;2.25;;;;;24.51;41.79;99992.44;5037105;28;45498;-86
2023/07/24 10:53:54;;;;;;;;;3.00;1.00;;;;;24.57;41.21;99999.06;5032686;28;46424;-79
2023/07/24 10:56:19;;;;;;;;;1.75;1.75;;;;;24.58;41.95;100003.44;5020972;28;61409;-79
2023/07/24 10:58:45;;;;;;;;;2.25;2.25;;;;;24.54;41.68;99992.19;5044789;28;45382;-81
2023/07/24 11:01:10;;;;;;;;;3.25;2.25;;;;;24.48;42.05;99998.09;5023356;28;45536;-80
2023/07/24 11:03:42;;;;;;;;;3.50;3.25;;;;;24.48;42.31;99999.94;5038996;28;46302;-81
2023/07/24 11:06:15;;;;;;;;;3.00;1.25;;;;;24.48;42.51;99998.09;5037607;28;45723;-82
2023/07/24 11:08:40;;;;;;;;;2.75;1.00;;;;;24.60;42.67;99990.72;5037821;28;45995;-84
2023/07/24 11:11:07;;;;;;;;;5.50;1.50;;;;;24.69;42.18;100003.19;5036939;28;59590;-83
2023/07/24 11:13:34;;;;;;;;;3.00;1.00;;;;;24.72;42.30;100000.22;5036343;28;45439;-74
2023/07/24 11:16:04;;;;;;;;;2.75;1.25;;;;;24.70;40.70;100004.03;5036535;28;45399;-76
2023/07/24 11:18:30;;;;;;;;;2.00;1.00;;;;;24.69;41.80;100002.38;5036638;28;45301;-73
2023/07/24 11:20:56;;;;;;;;;2.25;2.25;;;;;24.74;41.25;100006.28;5016688;28;72178;-73
2023/07/24 11:23:22;;;;;;;;;1.25;1.25;;;;;24.81;40.63;100012.69;5033779;28;48267;-73
2023/07/24 11:25:50;;;;;;;;;0.50;0.50;;;;;24.87;40.51;100008.56;5036022;28;45845;-74
2023/07/24 11:28:16;;;;;;;;;6.25;2.75;;;;;24.86;41.02;100006.03;5021350;28;45511;-74